createdAt,value
2018-08-10T00:00:03.982Z,55.94
2018-08-10T00:00:44.772Z,55.77
2018-08-10T00:01:25.510Z,56.52
2018-08-10T00:02:06.248Z,55.68
2018-08-10T00:02:47.038Z,55.75
2018-08-10T00:03:27.847Z,55.75
2018-08-10T00:04:08.527Z,54.97
2018-08-10T00:04:49.300Z,55.46
2018-08-10T00:05:30.109Z,55.55
2018-08-10T00:06:10.966Z,55.46
2018-08-10T00:06:51.731Z,55.55
2018-08-10T00:07:32.469Z,55.36
2018-08-10T00:08:13.252Z,54.77
2018-08-10T00:08:54.128Z,54.87
2018-08-10T00:09:34.820Z,54.87
2018-08-10T00:10:15.577Z,54.87
2018-08-10T00:10:56.314Z,54.48
2018-08-10T00:11:37.142Z,54.28
2018-08-10T00:12:17.958Z,54.28
2018-08-10T00:12:58.811Z,54.77
2018-08-10T00:13:39.552Z,54.38
2018-08-10T00:14:20.299Z,55.46
2018-08-10T00:15:01.064Z,54.58
2018-08-10T00:15:41.857Z,54.19
2018-08-10T00:16:22.722Z,53.7
2018-08-10T00:17:03.452Z,53.89
2018-08-10T00:17:44.278Z,53.11
2018-08-10T00:18:25.103Z,53.99
2018-08-10T00:19:05.881Z,52.83
2018-08-10T00:19:46.714Z,53.21
2018-08-10T00:20:27.427Z,53.89
2018-08-10T00:21:08.236Z,53.11
2018-08-10T00:21:49.058Z,52.73
2018-08-10T00:22:44.364Z,53.02
2018-08-10T00:23:25.108Z,53.02
2018-08-10T00:24:05.838Z,53.21
2018-08-10T00:24:46.674Z,53.41
2018-08-10T00:25:27.463Z,53.02
2018-08-10T00:26:08.256Z,52.92
2018-08-10T00:26:49.062Z,53.38
2018-08-10T00:27:29.885Z,53.41
2018-08-10T00:28:10.725Z,53.5
2018-08-10T00:28:51.480Z,53.41
2018-08-10T00:29:32.232Z,53.89
2018-08-10T00:30:13.008Z,54.06
2018-08-10T00:30:53.790Z,54.55
2018-08-10T00:31:34.635Z,54.46
2018-08-10T00:32:15.496Z,54.87
2018-08-10T00:32:56.272Z,54.77
2018-08-10T00:33:37.018Z,54.77
2018-08-10T00:34:17.845Z,55.55
2018-08-10T00:34:58.704Z,55.52
2018-08-10T00:35:39.447Z,55.52
2018-08-10T00:36:20.197Z,55.72
2018-08-10T00:37:00.949Z,55.75
2018-08-10T00:37:41.741Z,56.04
2018-08-10T00:38:22.656Z,56.14
2018-08-10T00:39:03.471Z,56.6
2018-08-10T00:39:44.256Z,56.62
2018-08-10T00:40:25.003Z,56.62
2018-08-10T00:41:05.763Z,57.31
2018-08-10T00:41:46.539Z,56.62
2018-08-10T00:42:27.382Z,57.01
2018-08-10T00:43:08.138Z,56.62
2018-08-10T00:43:48.907Z,57.6
2018-08-10T00:44:29.726Z,57.6
2018-08-10T00:45:10.484Z,57.79
2018-08-10T00:45:51.353Z,57.86
2018-08-10T00:46:32.094Z,58.18
2018-08-10T00:47:12.827Z,58.18
2018-08-10T00:47:53.526Z,58.67
2018-08-10T00:48:34.316Z,58.58
2018-08-10T00:49:15.142Z,58.58
2018-08-10T00:49:55.984Z,58.18
2018-08-10T00:50:36.722Z,58.58
2018-08-10T00:51:17.471Z,58.77
2018-08-10T00:51:58.303Z,58.77
2018-08-10T00:52:39.084Z,58.54
2018-08-10T00:53:19.812Z,59.52
2018-08-10T00:54:00.565Z,58.74
2018-08-10T00:54:41.355Z,59.33
2018-08-10T00:55:22.240Z,59.26
2018-08-10T00:56:03.041Z,59.13
2018-08-10T00:56:43.791Z,59.35
2018-08-10T00:57:24.613Z,59.13
2018-08-10T00:58:05.411Z,59.45
2018-08-10T00:58:46.248Z,59.42
2018-08-10T00:59:28.603Z,59.55
2018-08-10T01:00:09.375Z,59.52
2018-08-10T01:00:50.212Z,59.13
2018-08-10T01:01:31.008Z,59.42
2018-08-10T01:02:11.743Z,59.64
2018-08-10T01:02:52.474Z,59.35
2018-08-10T01:03:33.307Z,59.42
2018-08-10T01:04:14.211Z,59.23
2018-08-10T01:04:55.004Z,59.42
2018-08-10T01:05:35.808Z,59.42
2018-08-10T01:06:16.610Z,59.23
2018-08-10T01:06:57.310Z,59.42
2018-08-10T01:07:38.040Z,59.23
2018-08-10T01:08:18.840Z,58.84
2018-08-10T01:08:59.599Z,59.03
2018-08-10T01:09:40.325Z,59.03
2018-08-10T01:10:21.129Z,59.33
2018-08-10T01:11:01.965Z,59.23
2018-08-10T01:11:42.809Z,59.33
2018-08-10T01:12:23.531Z,59.33
2018-08-10T01:13:07.101Z,59.33
2018-08-10T01:13:47.939Z,59.33
2018-08-10T01:14:28.701Z,59.13
2018-08-10T01:15:09.481Z,59.33
2018-08-10T01:15:50.253Z,59.42
2018-08-10T01:16:30.979Z,59.33
2018-08-10T01:17:11.803Z,60
2018-08-10T01:17:52.602Z,59.62
2018-08-10T01:18:33.404Z,60
2018-08-10T01:19:14.256Z,59.52
2018-08-10T01:19:55.020Z,59.81
2018-08-10T01:20:35.829Z,60.1
2018-08-10T01:21:16.599Z,59.42
2018-08-10T01:21:57.325Z,59.42
2018-08-10T01:22:38.094Z,59.52
2018-08-10T01:23:18.862Z,59.33
2018-08-10T01:23:59.792Z,58.94
2018-08-10T01:24:40.702Z,60
2018-08-10T01:25:21.486Z,59.03
2018-08-10T01:26:02.248Z,60
2018-08-10T01:26:43.096Z,59.13
2018-08-10T01:27:23.875Z,59.03
2018-08-10T01:28:04.637Z,59.52
2018-08-10T01:28:45.472Z,59.03
2018-08-10T01:29:26.137Z,59.42
2018-08-10T01:30:07.011Z,58.54
2018-08-10T01:30:47.756Z,59.03
2018-08-10T01:31:28.503Z,59.03
2018-08-10T01:32:09.352Z,59.52
2018-08-10T01:32:50.125Z,58.54
2018-08-10T01:33:31.004Z,58.54
2018-08-10T01:34:11.735Z,59.42
2018-08-10T01:34:52.450Z,59.33
2018-08-10T01:35:33.345Z,58.74
2018-08-10T01:36:14.153Z,58.35
2018-08-10T01:36:54.868Z,58.45
2018-08-10T01:37:35.597Z,58.25
2018-08-10T01:38:16.341Z,58.15
2018-08-10T01:38:57.167Z,58.35
2018-08-10T01:39:37.961Z,58.25
2018-08-10T01:40:18.803Z,57.57
2018-08-10T01:40:59.535Z,58.25
2018-08-10T01:41:40.299Z,57.67
2018-08-10T01:42:21.017Z,58.35
2018-08-10T01:43:01.872Z,57.67
2018-08-10T01:43:42.636Z,57.76
2018-08-10T01:44:23.355Z,57.37
2018-08-10T01:45:04.178Z,56.99
2018-08-10T01:45:44.979Z,57.28
2018-08-10T01:46:25.833Z,57.86
2018-08-10T01:47:06.569Z,57.37
2018-08-10T01:47:47.282Z,56.47
2018-08-10T01:48:28.042Z,57.06
2018-08-10T01:49:08.780Z,57.45
2018-08-10T01:49:49.626Z,56.09
2018-08-10T01:50:30.499Z,56.18
2018-08-10T01:51:11.293Z,56.21
2018-08-10T01:51:52.068Z,56.21
2018-08-10T01:52:32.817Z,56.47
2018-08-10T01:53:13.671Z,57.15
2018-08-10T01:53:55.106Z,55.89
2018-08-10T01:54:35.599Z,55.79
2018-08-10T01:55:16.336Z,55.4
2018-08-10T01:55:57.160Z,56.21
2018-08-10T01:56:38.008Z,55.99
2018-08-10T01:57:18.883Z,55.43
2018-08-10T01:57:59.636Z,55.4
2018-08-10T01:58:40.445Z,54.91
2018-08-10T01:59:21.189Z,54.72
2018-08-10T02:00:01.936Z,55.3
2018-08-10T02:00:42.785Z,55.5
2018-08-10T02:01:23.591Z,54.26
2018-08-10T02:02:04.325Z,55.89
2018-08-10T02:02:45.218Z,55.3
2018-08-10T02:03:26.084Z,55.5
2018-08-10T02:04:06.971Z,54.82
2018-08-10T02:04:47.702Z,55.4
2018-08-10T02:05:28.444Z,54.91
2018-08-10T02:06:09.256Z,55.21
2018-08-10T02:06:50.016Z,55.72
2018-08-10T02:07:30.787Z,55.5
2018-08-10T02:08:11.549Z,55.3
2018-08-10T02:08:52.306Z,54.52
2018-08-10T02:09:33.164Z,55.5
2018-08-10T02:10:13.923Z,55.3
2018-08-10T02:10:54.693Z,54.62
2018-08-10T02:11:35.546Z,55.43
2018-08-10T02:12:16.399Z,54.55
2018-08-10T02:12:57.264Z,54.13
2018-08-10T02:13:38.018Z,54.94
2018-08-10T02:14:18.795Z,54.52
2018-08-10T02:14:59.540Z,54.46
2018-08-10T02:15:40.422Z,55.4
2018-08-10T02:16:21.215Z,55.5
2018-08-10T02:17:02.092Z,55.23
2018-08-10T02:17:42.904Z,54.94
2018-08-10T02:18:23.620Z,55.43
2018-08-10T02:19:04.472Z,55.04
2018-08-10T02:19:45.232Z,55.52
2018-08-10T02:20:25.963Z,55.13
2018-08-10T02:21:06.691Z,54.91
2018-08-10T02:21:47.438Z,54.43
2018-08-10T02:22:28.244Z,54.23
2018-08-10T02:23:09.050Z,55.01
2018-08-10T02:23:49.792Z,54.52
2018-08-10T02:24:30.710Z,54.33
2018-08-10T02:25:11.540Z,54.85
2018-08-10T02:25:52.368Z,54.26
2018-08-10T02:26:33.079Z,54.13
2018-08-10T02:27:13.866Z,54.23
2018-08-10T02:27:54.667Z,54.33
2018-08-10T02:28:37.174Z,54.43
2018-08-10T02:29:17.918Z,54.16
2018-08-10T02:29:58.663Z,54.23
2018-08-10T02:30:39.488Z,54.23
2018-08-10T02:31:20.270Z,54.23
2018-08-10T02:32:01.120Z,54.85
2018-08-10T02:32:41.924Z,54.46
2018-08-10T02:33:22.676Z,54.33
2018-08-10T02:34:03.397Z,54.26
2018-08-10T02:34:44.185Z,54.33
2018-08-10T02:35:25.027Z,54.43
2018-08-10T02:36:05.807Z,54.36
2018-08-10T02:36:46.588Z,54.33
2018-08-10T02:37:27.407Z,54.03
2018-08-10T02:38:08.228Z,54.33
2018-08-10T02:38:49.032Z,54.33
2018-08-10T02:39:29.741Z,54.23
2018-08-10T02:40:10.590Z,54.33
2018-08-10T02:40:51.437Z,54.03
2018-08-10T02:41:32.199Z,54.23
2018-08-10T02:42:12.945Z,53.85
2018-08-10T02:42:53.684Z,53.85
2018-08-10T02:43:34.442Z,54.23
2018-08-10T02:44:15.237Z,54.13
2018-08-10T02:44:56.051Z,54.62
2018-08-10T02:45:36.753Z,54.13
2018-08-10T02:46:17.589Z,54.03
2018-08-10T02:46:58.484Z,54.43
2018-08-10T02:47:39.297Z,54.23
2018-08-10T02:48:20.038Z,54.23
2018-08-10T02:49:00.793Z,54.33
2018-08-10T02:49:41.509Z,53.55
2018-08-10T02:50:22.293Z,53.94
2018-08-10T02:51:03.184Z,54.52
2018-08-10T02:51:44.071Z,54.13
2018-08-10T02:52:24.832Z,54.62
2018-08-10T02:53:05.547Z,54.62
2018-08-10T02:53:46.353Z,54.43
2018-08-10T02:54:27.160Z,54.23
2018-08-10T02:55:07.927Z,54.23
2018-08-10T02:55:48.681Z,54.23
2018-08-10T02:56:29.420Z,54.52
2018-08-10T02:57:10.283Z,54.52
2018-08-10T02:57:51.129Z,54.62
2018-08-10T02:58:31.931Z,53.45
2018-08-10T02:59:12.696Z,53.45
2018-08-10T02:59:53.424Z,53.65
2018-08-10T03:00:34.172Z,53.45
2018-08-10T03:01:14.969Z,53.45
2018-08-10T03:01:55.767Z,54.13
2018-08-10T03:02:36.525Z,53.16
2018-08-10T03:03:17.338Z,54.33
2018-08-10T03:03:58.142Z,54.33
2018-08-10T03:04:38.969Z,54.03
2018-08-10T03:05:19.742Z,53.65
2018-08-10T03:06:00.569Z,54.33
2018-08-10T03:06:41.240Z,53.55
2018-08-10T03:07:21.974Z,53.55
2018-08-10T03:08:02.830Z,53.75
2018-08-10T03:08:43.720Z,53.06
2018-08-10T03:09:24.503Z,53.26
2018-08-10T03:10:05.264Z,53.26
2018-08-10T03:10:46.038Z,53.65
2018-08-10T03:11:26.898Z,53.36
2018-08-10T03:12:07.692Z,53.45
2018-08-10T03:12:48.422Z,53.16
2018-08-10T03:13:29.140Z,53.65
2018-08-10T03:14:09.976Z,54.23
2018-08-10T03:14:50.751Z,54.03
2018-08-10T03:15:31.514Z,54.13
2018-08-10T03:16:12.277Z,54.03
2018-08-10T03:16:53.068Z,54.33
2018-08-10T03:17:33.881Z,53.45
2018-08-10T03:18:14.728Z,53.45
2018-08-10T03:18:55.483Z,53.55
2018-08-10T03:19:36.295Z,53.94
2018-08-10T03:20:17.048Z,53.26
2018-08-10T03:20:57.825Z,52.77
2018-08-10T03:21:38.614Z,53.75
2018-08-10T03:22:19.332Z,52.77
2018-08-10T03:23:00.172Z,52.87
2018-08-10T03:23:40.924Z,52.58
2018-08-10T03:24:21.778Z,52.38
2018-08-10T03:25:02.565Z,52.58
2018-08-10T03:25:43.308Z,53.06
2018-08-10T03:26:24.050Z,52.09
2018-08-10T03:27:04.839Z,52.28
2018-08-10T03:27:45.659Z,53.16
2018-08-10T03:28:26.447Z,52.28
2018-08-10T03:29:07.184Z,52.58
2018-08-10T03:29:48.025Z,52.28
2018-08-10T03:30:28.880Z,52.87
2018-08-10T03:31:09.699Z,53.75
2018-08-10T03:31:50.472Z,52.87
2018-08-10T03:32:31.208Z,52.87
2018-08-10T03:33:11.988Z,53.85
2018-08-10T03:33:52.763Z,52.58
2018-08-10T03:34:35.307Z,52.87
2018-08-10T03:35:18.028Z,51.99
2018-08-10T03:35:58.816Z,52.58
2018-08-10T03:36:39.602Z,52.67
2018-08-10T03:37:20.395Z,52.38
2018-08-10T03:38:01.314Z,52.28
2018-08-10T03:38:42.019Z,52.48
2018-08-10T03:39:22.761Z,52.48
2018-08-10T03:40:05.200Z,52.19
2018-08-10T03:40:46.042Z,52.67
2018-08-10T03:41:26.880Z,52.38
2018-08-10T03:42:07.729Z,52.87
2018-08-10T03:42:48.447Z,53.85
2018-08-10T03:43:29.232Z,52.87
2018-08-10T03:44:09.965Z,52.38
2018-08-10T03:44:50.752Z,52.38
2018-08-10T03:45:31.648Z,52.38
2018-08-10T03:46:12.386Z,52.28
2018-08-10T03:46:53.150Z,52.58
2018-08-10T03:47:34.020Z,52.87
2018-08-10T03:48:14.790Z,53.16
2018-08-10T03:48:55.635Z,52.67
2018-08-10T03:49:36.371Z,52.77
2018-08-10T03:50:17.154Z,52.48
2018-08-10T03:50:58.003Z,52.58
2018-08-10T03:51:38.739Z,51.8
2018-08-10T03:52:19.512Z,52.38
2018-08-10T03:53:00.323Z,51.41
2018-08-10T03:53:41.133Z,51.8
2018-08-10T03:54:21.935Z,51.7
2018-08-10T03:55:02.704Z,51.21
2018-08-10T03:55:43.462Z,51.51
2018-08-10T03:56:24.325Z,51.61
2018-08-10T03:57:05.115Z,52.19
2018-08-10T03:57:45.892Z,51.7
2018-08-10T03:58:26.612Z,52.48
2018-08-10T03:59:07.374Z,51.8
2018-08-10T03:59:48.164Z,51.7
2018-08-10T04:00:28.993Z,51.61
2018-08-10T04:01:09.835Z,51.8
2018-08-10T04:01:50.761Z,51.9
2018-08-10T04:02:31.516Z,51.7
2018-08-10T04:03:12.300Z,51.7
2018-08-10T04:03:53.181Z,52.67
2018-08-10T04:04:33.932Z,52.48
2018-08-10T04:05:14.700Z,51.51
2018-08-10T04:05:55.439Z,51.99
2018-08-10T04:06:36.250Z,52.38
2018-08-10T04:07:17.170Z,51.9
2018-08-10T04:07:57.994Z,51.61
2018-08-10T04:08:38.826Z,52.38
2018-08-10T04:09:19.615Z,52.38
2018-08-10T04:10:00.367Z,51.61
2018-08-10T04:10:41.167Z,51.8
2018-08-10T04:11:22.004Z,52.58
2018-08-10T04:12:02.846Z,52.28
2018-08-10T04:12:43.569Z,51.7
2018-08-10T04:13:24.388Z,52.09
2018-08-10T04:14:05.248Z,51.8
2018-08-10T04:14:46.095Z,51.61
2018-08-10T04:15:26.853Z,51.61
2018-08-10T04:16:07.628Z,51.7
2018-08-10T04:16:48.364Z,51.8
2018-08-10T04:17:29.136Z,51.51
2018-08-10T04:18:10.005Z,52.48
2018-08-10T04:18:50.812Z,52.48
2018-08-10T04:19:31.597Z,52.58
2018-08-10T04:20:12.337Z,52.48
2018-08-10T04:20:53.120Z,51.99
2018-08-10T04:21:34.039Z,52.48
2018-08-10T04:22:14.779Z,52.48
2018-08-10T04:22:55.522Z,52.67
2018-08-10T04:23:36.295Z,52.38
2018-08-10T04:24:17.115Z,52.38
2018-08-10T04:24:57.907Z,52.38
2018-08-10T04:25:38.649Z,52.58
2018-08-10T04:26:19.405Z,52.48
2018-08-10T04:27:00.262Z,52.58
2018-08-10T04:27:41.049Z,52.48
2018-08-10T04:28:21.874Z,52.58
2018-08-10T04:29:02.634Z,52.77
2018-08-10T04:29:43.549Z,53.06
2018-08-10T04:30:24.276Z,52.77
2018-08-10T04:31:05.071Z,52.97
2018-08-10T04:31:45.865Z,52.87
2018-08-10T04:32:26.627Z,53.06
2018-08-10T04:33:07.459Z,53.16
2018-08-10T04:33:48.342Z,53.06
2018-08-10T04:34:29.201Z,53.36
2018-08-10T04:35:09.949Z,53.65
2018-08-10T04:35:50.689Z,53.55
2018-08-10T04:36:31.434Z,53.55
2018-08-10T04:37:12.278Z,53.55
2018-08-10T04:37:53.104Z,53.94
2018-08-10T04:38:33.939Z,53.65
2018-08-10T04:39:14.639Z,53.85
2018-08-10T04:39:55.519Z,54.52
2018-08-10T04:40:36.303Z,54.23
2018-08-10T04:41:17.115Z,54.03
2018-08-10T04:41:57.859Z,54.13
2018-08-10T04:42:38.673Z,54.23
2018-08-10T04:43:19.521Z,54.33
2018-08-10T04:44:00.239Z,54.33
2018-08-10T04:44:40.983Z,54.13
2018-08-10T04:45:21.699Z,54.23
2018-08-10T04:46:02.575Z,54.03
2018-08-10T04:46:43.375Z,54.33
2018-08-10T04:47:24.083Z,54.43
2018-08-10T04:48:04.949Z,54.13
2018-08-10T04:48:45.707Z,54.23
2018-08-10T04:49:26.547Z,54.43
2018-08-10T04:50:07.390Z,54.13
2018-08-10T04:50:48.126Z,53.94
2018-08-10T04:51:28.908Z,54.03
2018-08-10T04:52:09.694Z,54.33
2018-08-10T04:52:50.577Z,53.55
2018-08-10T04:53:31.381Z,53.75
2018-08-10T04:54:12.225Z,53.36
2018-08-10T04:54:52.990Z,53.55
2018-08-10T04:55:33.789Z,53.55
2018-08-10T04:56:14.584Z,53.65
2018-08-10T04:56:55.378Z,53.85
2018-08-10T04:57:36.083Z,53.36
2018-08-10T04:58:16.814Z,53.45
2018-08-10T04:58:57.579Z,53.36
2018-08-10T04:59:38.408Z,53.16
2018-08-10T05:00:19.176Z,53.06
2018-08-10T05:00:59.982Z,53.45
2018-08-10T05:01:40.779Z,53.85
2018-08-10T05:02:21.630Z,53.36
2018-08-10T05:03:02.411Z,52.48
2018-08-10T05:03:43.267Z,52.87
2018-08-10T05:04:24.098Z,52.84
2018-08-10T05:05:04.933Z,53.65
2018-08-10T05:05:45.661Z,53.36
2018-08-10T05:06:26.764Z,53.85
2018-08-10T05:07:07.920Z,52.87
2018-08-10T05:07:48.759Z,53.06
2018-08-10T05:08:29.564Z,53.26
2018-08-10T05:09:10.423Z,52.77
2018-08-10T05:09:51.218Z,52.28
2018-08-10T05:10:31.955Z,53.45
2018-08-10T05:11:12.683Z,52.58
2018-08-10T05:11:53.467Z,52.48
2018-08-10T05:12:34.318Z,52.67
2018-08-10T05:13:15.065Z,52.75
2018-08-10T05:13:55.869Z,52.75
2018-08-10T05:14:36.711Z,53.06
2018-08-10T05:15:17.513Z,53.06
2018-08-10T05:15:58.327Z,53.16
2018-08-10T05:16:39.101Z,53.75
2018-08-10T05:17:19.840Z,53.45
2018-08-10T05:18:00.588Z,53.55
2018-08-10T05:18:41.414Z,53.45
2018-08-10T05:19:22.233Z,53.36
2018-08-10T05:20:03.065Z,53.45
2018-08-10T05:20:43.811Z,53.55
2018-08-10T05:21:24.549Z,53.94
2018-08-10T05:22:05.412Z,53.36
2018-08-10T05:22:46.129Z,53.36
2018-08-10T05:23:26.895Z,53.94
2018-08-10T05:24:07.573Z,54.23
2018-08-10T05:24:48.319Z,54.33
2018-08-10T05:25:29.188Z,54.03
2018-08-10T05:26:10.016Z,54.23
2018-08-10T05:26:50.870Z,54.13
2018-08-10T05:27:31.586Z,54.03
2018-08-10T05:28:12.315Z,54.23
2018-08-10T05:28:53.100Z,54.23
2018-08-10T05:29:33.926Z,54.82
2018-08-10T05:30:14.718Z,54.72
2018-08-10T05:30:55.459Z,54.82
2018-08-10T05:31:36.294Z,54.72
2018-08-10T05:32:17.123Z,54.91
2018-08-10T05:32:57.963Z,55.21
2018-08-10T05:33:38.944Z,55.3
2018-08-10T05:34:19.662Z,55.4
2018-08-10T05:35:00.492Z,55.5
2018-08-10T05:35:41.238Z,55.21
2018-08-10T05:36:21.964Z,55.4
2018-08-10T05:37:02.712Z,55.4
2018-08-10T05:37:43.509Z,55.43
2018-08-10T05:38:24.368Z,55.3
2018-08-10T05:39:05.144Z,55.69
2018-08-10T05:39:45.861Z,55.23
2018-08-10T05:40:26.842Z,55.4
2018-08-10T05:41:07.614Z,55.69
2018-08-10T05:41:48.447Z,55.79
2018-08-10T05:42:29.264Z,55.99
2018-08-10T05:43:09.991Z,55.99
2018-08-10T05:43:50.819Z,56.09
2018-08-10T05:44:31.573Z,56.01
2018-08-10T05:45:12.462Z,55.89
2018-08-10T05:45:53.299Z,55.91
2018-08-10T05:46:34.124Z,56.21
2018-08-10T05:47:15.420Z,55.69
2018-08-10T05:47:56.243Z,56.3
2018-08-10T05:48:37.090Z,56.21
2018-08-10T05:49:17.847Z,56.01
2018-08-10T05:49:58.542Z,55.91
2018-08-10T05:50:39.309Z,56.3
2018-08-10T05:51:20.149Z,55.52
2018-08-10T05:52:01.028Z,56.01
2018-08-10T05:52:41.976Z,56.11
2018-08-10T05:53:22.872Z,56.01
2018-08-10T05:54:04.009Z,56.11
2018-08-10T05:54:44.747Z,56.21
2018-08-10T05:55:25.769Z,56.21
2018-08-10T05:56:06.411Z,56.3
2018-08-10T05:56:49.144Z,55.72
2018-08-10T05:57:30.031Z,55.82
2018-08-10T05:58:10.757Z,55.72
2018-08-10T05:58:51.580Z,55.91
2018-08-10T05:59:32.451Z,55.72
2018-08-10T06:00:14.380Z,55.72
2018-08-10T06:00:55.804Z,55.62
2018-08-10T06:01:36.593Z,55.52
2018-08-10T06:02:17.486Z,55.72
2018-08-10T06:02:58.363Z,55.62
2018-08-10T06:03:39.262Z,55.43
2018-08-10T06:04:19.930Z,55.23
2018-08-10T06:05:00.657Z,55.72
2018-08-10T06:05:41.478Z,55.43
2018-08-10T06:06:22.257Z,55.52
2018-08-10T06:07:03.007Z,55.33
2018-08-10T06:07:43.844Z,55.33
2018-08-10T06:08:24.645Z,55.52
2018-08-10T06:09:05.455Z,55.33
2018-08-10T06:09:48.805Z,55.43
2018-08-10T06:10:29.612Z,55.72
2018-08-10T06:11:10.420Z,55.72
2018-08-10T06:11:51.306Z,55.52
2018-08-10T06:12:32.152Z,55.43
2018-08-10T06:13:12.973Z,54.94
2018-08-10T06:13:53.680Z,54.75
2018-08-10T06:14:34.484Z,54.85
2018-08-10T06:15:15.221Z,54.75
2018-08-10T06:15:55.957Z,55.33
2018-08-10T06:16:36.717Z,54.94
2018-08-10T06:17:17.562Z,54.85
2018-08-10T06:17:58.409Z,54.75
2018-08-10T06:18:39.239Z,54.94
2018-08-10T06:19:20.030Z,55.62
2018-08-10T06:20:00.860Z,55.52
2018-08-10T06:20:41.556Z,54.94
2018-08-10T06:21:22.327Z,54.75
2018-08-10T06:22:03.198Z,55.52
2018-08-10T06:22:43.969Z,54.94
2018-08-10T06:23:24.695Z,54.77
2018-08-10T06:24:05.556Z,54.68
2018-08-10T06:24:46.450Z,54.97
2018-08-10T06:25:27.269Z,54.97
2018-08-10T06:26:08.057Z,54.58
2018-08-10T06:26:48.774Z,54.68
2018-08-10T06:27:29.510Z,54.97
2018-08-10T06:28:10.316Z,54.58
2018-08-10T06:28:51.130Z,54.38
2018-08-10T06:29:31.963Z,54.38
2018-08-10T06:30:12.732Z,54.28
2018-08-10T06:30:53.441Z,54.48
2018-08-10T06:31:34.292Z,54.31
2018-08-10T06:32:15.069Z,54.9
2018-08-10T06:32:55.805Z,54.7
2018-08-10T06:33:36.575Z,54.7
2018-08-10T06:34:17.447Z,54.44
2018-08-10T06:34:58.152Z,54.53
2018-08-10T06:35:38.978Z,54.24
2018-08-10T06:36:19.809Z,54.53
2018-08-10T06:37:00.535Z,54.34
2018-08-10T06:37:41.304Z,54.46
2018-08-10T06:38:22.028Z,54.36
2018-08-10T06:39:04.720Z,54.17
2018-08-10T06:39:45.554Z,54.36
2018-08-10T06:40:26.291Z,54.17
2018-08-10T06:41:07.086Z,53.97
2018-08-10T06:41:47.930Z,54.69
2018-08-10T06:42:28.756Z,58.69
2018-08-10T06:43:09.529Z,57.62
2018-08-10T06:43:50.258Z,56.05
2018-08-10T06:44:31.072Z,56.93
2018-08-10T06:45:11.912Z,55.66
2018-08-10T06:45:52.589Z,55.37
2018-08-10T06:46:33.377Z,55.37
2018-08-10T06:47:14.127Z,55.47
2018-08-10T06:47:54.941Z,54.98
2018-08-10T06:48:35.744Z,55.08
2018-08-10T06:49:16.510Z,55.08
2018-08-10T06:49:57.376Z,55.08
2018-08-10T06:50:38.167Z,54.69
2018-08-10T06:51:19.102Z,54.59
2018-08-10T06:51:59.808Z,55.08
2018-08-10T06:52:40.528Z,54.98
2018-08-10T06:53:21.291Z,54.59
2018-08-10T06:54:02.097Z,55.27
2018-08-10T06:54:42.967Z,55.66
2018-08-10T06:55:23.801Z,55.83
2018-08-10T06:56:04.704Z,55.27
2018-08-10T06:56:45.380Z,55.37
2018-08-10T06:57:26.193Z,55.27
2018-08-10T06:58:07.008Z,55.37
2018-08-10T06:58:47.725Z,55.86
2018-08-10T06:59:28.479Z,55.76
2018-08-10T07:00:09.233Z,55.66
2018-08-10T07:00:50.041Z,55.86
2018-08-10T07:01:30.926Z,56.47
2018-08-10T07:02:11.637Z,55.86
2018-08-10T07:02:52.409Z,56.37
2018-08-10T07:03:33.240Z,56.57
2018-08-10T07:04:14.050Z,56.57
2018-08-10T07:04:54.884Z,56.57
2018-08-10T07:05:35.566Z,56.96
2018-08-10T07:06:16.406Z,56.27
2018-08-10T07:06:57.156Z,56.57
2018-08-10T07:07:38.081Z,56.57
2018-08-10T07:08:18.672Z,56.76
2018-08-10T07:08:59.433Z,56.47
2018-08-10T07:09:40.277Z,56.67
2018-08-10T07:10:21.071Z,56.37
2018-08-10T07:11:01.905Z,56.86
2018-08-10T07:11:42.787Z,56.57
2018-08-10T07:12:23.537Z,56.47
2018-08-10T07:13:04.295Z,56.47
2018-08-10T07:13:45.023Z,56.86
2018-08-10T07:14:25.834Z,56.67
2018-08-10T07:15:06.626Z,56.27
2018-08-10T07:15:47.366Z,56.96
2018-08-10T07:16:28.270Z,56.67
2018-08-10T07:17:09.109Z,56.76
2018-08-10T07:17:50.054Z,56.67
2018-08-10T07:18:30.851Z,56.67
2018-08-10T07:19:11.689Z,56.67
2018-08-10T07:19:52.574Z,56.86
2018-08-10T07:20:33.415Z,56.27
2018-08-10T07:21:14.088Z,56.76
2018-08-10T07:21:54.830Z,57.03
2018-08-10T07:22:35.643Z,57.49
2018-08-10T07:23:16.468Z,57.98
2018-08-10T07:23:57.227Z,57.78
2018-08-10T07:24:37.972Z,57.75
2018-08-10T07:25:18.857Z,58.34
2018-08-10T07:25:59.697Z,58.66
2018-08-10T07:26:40.515Z,57.88
2018-08-10T07:27:21.302Z,57.78
2018-08-10T07:28:02.061Z,57.88
2018-08-10T07:28:42.903Z,57.68
2018-08-10T07:29:23.717Z,58.53
2018-08-10T07:30:04.564Z,58.73
2018-08-10T07:30:45.399Z,58.24
2018-08-10T07:31:26.227Z,58.44
2018-08-10T07:32:07.008Z,58.14
2018-08-10T07:32:47.884Z,57.68
2018-08-10T07:33:28.606Z,57.88
2018-08-10T07:34:09.345Z,57.23
2018-08-10T07:34:50.137Z,57.35
2018-08-10T07:35:30.932Z,56.64
2018-08-10T07:36:11.826Z,56.67
2018-08-10T07:36:52.727Z,56.27
2018-08-10T07:37:33.477Z,56.1
2018-08-10T07:38:14.238Z,56.01
2018-08-10T07:38:54.997Z,55.91
2018-08-10T07:39:35.713Z,55.71
2018-08-10T07:40:16.575Z,55.81
2018-08-10T07:40:57.347Z,55.65
2018-08-10T07:41:38.165Z,55.16
2018-08-10T07:42:19.051Z,54.57
2018-08-10T07:42:59.840Z,54.5
2018-08-10T07:43:40.653Z,53.84
2018-08-10T07:44:24.278Z,53.35
2018-08-10T07:45:05.030Z,53.18
2018-08-10T07:45:45.800Z,52.69
2018-08-10T07:46:26.550Z,52.79
2018-08-10T07:47:07.372Z,52.98
2018-08-10T07:47:48.246Z,52.5
2018-08-10T07:48:29.016Z,52.79
2018-08-10T07:49:09.751Z,52.72
2018-08-10T07:49:50.586Z,51.76
2018-08-10T07:50:31.359Z,51.66
2018-08-10T07:51:12.207Z,51.76
2018-08-10T07:51:52.906Z,51.56
2018-08-10T07:52:33.617Z,51.27
2018-08-10T07:53:14.441Z,51.2
2018-08-10T07:53:55.256Z,50.81
2018-08-10T07:54:36.023Z,51
2018-08-10T07:55:16.951Z,51
2018-08-10T07:55:57.832Z,50.63
2018-08-10T07:56:38.723Z,50.88
2018-08-10T07:57:19.530Z,51.54
2018-08-10T07:58:00.277Z,51.61
2018-08-10T07:58:41.217Z,51.93
2018-08-10T07:59:22.062Z,51.76
2018-08-10T08:00:02.955Z,51.39
2018-08-10T08:00:43.696Z,51.1
2018-08-10T08:01:24.467Z,50.63
2018-08-10T08:02:05.355Z,50.44
2018-08-10T08:02:46.207Z,49.97
2018-08-10T08:03:28.580Z,49.6
2018-08-10T08:04:09.385Z,49.21
2018-08-10T08:04:50.168Z,48.72
2018-08-10T08:05:30.896Z,48.65
2018-08-10T08:06:12.047Z,48.65
2018-08-10T08:06:52.650Z,48.65
2018-08-10T08:07:35.257Z,48.52
2018-08-10T08:08:16.109Z,49.07
2018-08-10T08:09:00.940Z,50.9
2018-08-10T08:09:41.810Z,51.44
2018-08-10T08:10:22.625Z,50.98
2018-08-10T08:11:03.381Z,50.63
2018-08-10T08:11:44.147Z,50.16
2018-08-10T08:12:24.906Z,49.08
2018-08-10T08:13:05.809Z,49.11
2018-08-10T08:13:46.580Z,48.62
2018-08-10T08:14:27.438Z,48.65
2018-08-10T08:15:08.207Z,48.55
2018-08-10T08:15:49.379Z,47.86
2018-08-10T08:16:30.398Z,48.37
2018-08-10T08:17:11.222Z,47.69
2018-08-10T08:17:52.067Z,47.49
2018-08-10T08:18:32.762Z,47.22
2018-08-10T08:19:13.672Z,47.12
2018-08-10T08:19:54.610Z,47.22
2018-08-10T08:20:35.308Z,47.93
2018-08-10T08:21:16.256Z,49.04
2018-08-10T08:21:56.999Z,49.9
2018-08-10T08:22:37.794Z,51.22
2018-08-10T08:23:18.521Z,51.95
2018-08-10T08:23:59.384Z,52.71
2018-08-10T08:24:40.229Z,53.56
2018-08-10T08:25:21.113Z,54.74
2018-08-10T08:26:01.988Z,54.71
2018-08-10T08:26:42.885Z,55.79
2018-08-10T08:27:23.739Z,55.66
2018-08-10T08:28:04.557Z,56.25
2018-08-10T08:28:45.351Z,56.64
2018-08-10T08:29:26.311Z,56.74
2018-08-10T08:30:07.224Z,57.52
2018-08-10T08:30:47.994Z,57.59
2018-08-10T08:31:28.761Z,58.17
2018-08-10T08:32:09.771Z,57.98
2018-08-10T08:32:50.529Z,58.07
2018-08-10T08:33:31.283Z,58.66
2018-08-10T08:34:12.024Z,58.44
2018-08-10T08:34:52.953Z,58.44
2018-08-10T08:35:33.692Z,58.63
2018-08-10T08:36:16.271Z,58.44
2018-08-10T08:36:57.072Z,58.73
2018-08-10T08:37:37.859Z,59.31
2018-08-10T08:38:18.603Z,59.61
2018-08-10T08:38:59.386Z,59.22
2018-08-10T08:39:40.198Z,59.22
2018-08-10T08:40:21.100Z,59.31
2018-08-10T08:41:01.945Z,59.31
2018-08-10T08:41:42.667Z,59.41
2018-08-10T08:42:23.459Z,59.44
2018-08-10T08:43:04.301Z,58.86
2018-08-10T08:43:45.152Z,58.5
2018-08-10T08:44:25.915Z,58.69
2018-08-10T08:45:06.767Z,58.66
2018-08-10T08:45:47.937Z,58.47
2018-08-10T08:46:28.725Z,58.86
2018-08-10T08:47:09.373Z,59.31
2018-08-10T08:47:50.155Z,59.41